createdAt,value
2023-02-12T00:02:25.726Z,0.93
2023-02-12T00:04:52.534Z,0.84
2023-02-12T00:07:19.038Z,1.05
2023-02-12T00:09:45.535Z,1.23
2023-02-12T00:12:12.051Z,0.84
2023-02-12T00:14:38.604Z,0.77
2023-02-12T00:17:05.124Z,0.80
2023-02-12T00:19:31.698Z,0.82
2023-02-12T00:21:58.175Z,1.15
2023-02-12T00:24:25.054Z,1.03
2023-02-12T00:26:51.639Z,1.13
2023-02-12T00:29:18.090Z,1.23
2023-02-12T00:31:44.655Z,1.26
2023-02-12T00:34:11.436Z,1.22
2023-02-12T00:36:37.957Z,1.48
2023-02-12T00:39:04.755Z,1.57
2023-02-12T00:41:32.608Z,1.55
2023-02-12T00:43:59.265Z,1.50
2023-02-12T00:46:25.814Z,1.49
2023-02-12T00:48:52.308Z,1.45
2023-02-12T00:51:18.822Z,1.40
2023-02-12T00:53:45.320Z,1.27
2023-02-12T00:56:11.805Z,1.13
2023-02-12T00:58:38.299Z,0.96
2023-02-12T01:01:04.930Z,1.06
2023-02-12T01:03:31.581Z,0.60
2023-02-12T01:05:58.363Z,0.49
2023-02-12T01:08:25.057Z,0.60
2023-02-12T01:11:03.143Z,0.62
2023-02-12T01:13:32.029Z,0.50
2023-02-12T01:16:03.102Z,0.59
2023-02-12T01:18:29.901Z,0.24
2023-02-12T01:20:56.448Z,0.35
2023-02-12T01:23:22.953Z,0.48
2023-02-12T01:25:49.464Z,0.41
2023-02-12T01:28:15.948Z,0.55
2023-02-12T01:30:42.479Z,0.55
2023-02-12T01:33:09.011Z,0.76
2023-02-12T01:35:37.962Z,0.73
2023-02-12T01:38:04.441Z,0.85
2023-02-12T01:40:30.994Z,0.92
2023-02-12T01:43:01.077Z,0.74
2023-02-12T01:45:36.715Z,0.73
2023-02-12T01:48:03.437Z,0.60
2023-02-12T01:50:30.034Z,0.53
2023-02-12T01:52:58.774Z,0.48
2023-02-12T01:55:25.816Z,0.53
2023-02-12T01:57:52.402Z,0.60
2023-02-12T02:00:24.488Z,0.53
2023-02-12T02:03:00.288Z,0.32
2023-02-12T02:05:33.298Z,0.11
2023-02-12T02:08:00.045Z,0.17
2023-02-12T02:10:26.595Z,0.02
2023-02-12T02:13:11.358Z,-0.01
2023-02-12T02:15:41.943Z,0.23
2023-02-12T02:18:24.979Z,0.35
2023-02-12T02:21:09.117Z,0.23
2023-02-12T02:24:04.928Z,0.28
2023-02-12T02:27:18.690Z,0.31
2023-02-12T02:30:14.897Z,0.42
2023-02-12T02:32:55.108Z,0.42
2023-02-12T02:35:32.895Z,0.27
2023-02-12T02:38:20.845Z,0.19
2023-02-12T02:40:55.055Z,0.38
2023-02-12T02:43:30.081Z,0.50
2023-02-12T02:46:05.393Z,0.48
2023-02-12T02:48:44.250Z,0.22
2023-02-12T02:51:20.295Z,0.19
2023-02-12T02:53:56.804Z,0.25
2023-02-12T02:56:25.052Z,0.26
2023-02-12T02:58:57.841Z,0.12
2023-02-12T03:01:27.064Z,0.17
2023-02-12T03:04:06.337Z,0.08
2023-02-12T03:06:40.333Z,-0.06
2023-02-12T03:09:17.030Z,-0.15
2023-02-12T03:11:43.700Z,-0.20
2023-02-12T03:14:23.681Z,-0.33
2023-02-12T03:17:05.215Z,-0.23
2023-02-12T03:19:43.549Z,-0.14
2023-02-12T03:22:14.307Z,-0.42
2023-02-12T03:24:53.748Z,-0.44
2023-02-12T03:27:27.187Z,-0.34
2023-02-12T03:29:53.811Z,-0.23
2023-02-12T03:32:50.886Z,-0.30
2023-02-12T03:35:32.964Z,-0.49
2023-02-12T03:38:17.795Z,-0.48
2023-02-12T03:40:56.543Z,-0.55
2023-02-12T03:43:28.435Z,-0.67
2023-02-12T03:46:03.996Z,-0.57
2023-02-12T03:48:41.303Z,-0.61
2023-02-12T03:51:25.876Z,-0.52
2023-02-12T03:53:52.848Z,-0.53
2023-02-12T03:56:25.563Z,-0.73
2023-02-12T03:58:52.065Z,-0.70
2023-02-12T04:01:18.780Z,-0.65
2023-02-12T04:03:45.290Z,-0.78
2023-02-12T04:06:27.218Z,-0.73
2023-02-12T04:08:56.414Z,-0.75
2023-02-12T04:11:37.712Z,-0.74
2023-02-12T04:14:22.537Z,-0.83
2023-02-12T04:16:57.979Z,-0.73
2023-02-12T04:19:43.749Z,-0.75
2023-02-12T04:22:48.875Z,-0.68
2023-02-12T04:25:53.987Z,-0.67
2023-02-12T04:28:34.731Z,-0.71
2023-02-12T04:31:29.875Z,-0.59
2023-02-12T04:34:09.781Z,-0.64
2023-02-12T04:36:45.761Z,-0.74
2023-02-12T04:39:19.005Z,-0.69
2023-02-12T04:41:45.503Z,-0.77
2023-02-12T04:44:23.232Z,-0.80
2023-02-12T04:46:50.465Z,-0.85
2023-02-12T04:49:18.953Z,-0.86
2023-02-12T04:51:46.479Z,-1.03
2023-02-12T04:54:14.227Z,-1.17
2023-02-12T04:56:40.700Z,-1.15
2023-02-12T04:59:07.640Z,-0.89
2023-02-12T05:01:35.360Z,-0.86
2023-02-12T05:04:02.252Z,-0.86
2023-02-12T05:06:30.476Z,-1.05
2023-02-12T05:08:57.934Z,-0.93
2023-02-12T05:11:24.580Z,-0.81
2023-02-12T05:13:53.005Z,-0.99
2023-02-12T05:16:21.390Z,-1.06
2023-02-12T05:18:48.134Z,-1.18
2023-02-12T05:21:15.275Z,-1.04
2023-02-12T05:23:41.973Z,-0.97
2023-02-12T05:26:15.693Z,-0.99
2023-02-12T05:28:42.245Z,-0.90
2023-02-12T05:31:11.385Z,-1.03
2023-02-12T05:33:37.910Z,-1.13
2023-02-12T05:36:10.580Z,-1.10
2023-02-12T05:38:37.105Z,-1.08
2023-02-12T05:41:08.418Z,-1.06
2023-02-12T05:43:35.234Z,-1.00
2023-02-12T05:46:04.285Z,-0.93
2023-02-12T05:48:31.402Z,-0.88
2023-02-12T05:51:11.740Z,-0.97
2023-02-12T05:53:39.798Z,-0.97
2023-02-12T05:56:09.470Z,-1.11
2023-02-12T05:58:36.274Z,-1.28
2023-02-12T06:01:02.982Z,-1.27
2023-02-12T06:03:29.550Z,-1.22
2023-02-12T06:05:56.440Z,-1.06
2023-02-12T06:08:23.088Z,-1.13
2023-02-12T06:10:49.534Z,-1.12
2023-02-12T06:13:16.010Z,-1.08
2023-02-12T06:15:42.545Z,-0.97
2023-02-12T06:18:09.010Z,-1.03
2023-02-12T06:20:35.447Z,-0.84
2023-02-12T06:23:01.870Z,-0.74
2023-02-12T06:25:28.368Z,-0.70
2023-02-12T06:27:54.821Z,-0.81
2023-02-12T06:30:21.450Z,-0.67
2023-02-12T06:32:50.288Z,-0.48
2023-02-12T06:35:16.879Z,-0.48
2023-02-12T06:37:43.393Z,-0.41
2023-02-12T06:40:10.263Z,-0.35
2023-02-12T06:42:36.722Z,-0.28
2023-02-12T06:45:03.652Z,-0.27
2023-02-12T06:47:30.103Z,-0.25
2023-02-12T06:49:56.657Z,-0.12
2023-02-12T06:52:23.273Z,-0.08
2023-02-12T06:54:49.773Z,0.01
2023-02-12T06:57:16.266Z,-0.04
2023-02-12T06:59:42.751Z,0.06
2023-02-12T07:02:11.219Z,0.15
2023-02-12T07:04:39.045Z,0.31
2023-02-12T07:07:06.047Z,0.40
2023-02-12T07:09:32.642Z,0.41
2023-02-12T07:11:59.449Z,0.27
2023-02-12T07:14:28.295Z,0.35
2023-02-12T07:16:57.258Z,0.47
2023-02-12T07:19:24.170Z,0.61
2023-02-12T07:21:50.709Z,0.50
2023-02-12T07:24:18.199Z,0.54
2023-02-12T07:26:44.807Z,0.55
2023-02-12T07:29:11.322Z,0.62
2023-02-12T07:31:37.900Z,0.58
2023-02-12T07:34:04.520Z,0.52
2023-02-12T07:36:32.865Z,0.69
2023-02-12T07:39:00.181Z,0.68
2023-02-12T07:41:29.408Z,0.93
2023-02-12T07:44:07.981Z,1.16
2023-02-12T07:46:37.408Z,1.10
2023-02-12T07:49:05.974Z,1.17
2023-02-12T07:51:36.616Z,1.47
2023-02-12T07:54:04.196Z,1.50
2023-02-12T07:56:35.226Z,1.43
2023-02-12T07:59:04.528Z,1.34
2023-02-12T08:01:37.125Z,1.41
2023-02-12T08:04:09.300Z,1.28
2023-02-12T08:06:38.919Z,1.49
2023-02-12T08:09:08.226Z,1.54
2023-02-12T08:11:35.130Z,1.41
2023-02-12T08:14:01.590Z,1.51
2023-02-12T08:16:29.272Z,1.58
2023-02-12T08:19:07.306Z,1.66
2023-02-12T08:21:41.249Z,1.74
2023-02-12T08:24:07.817Z,1.67
2023-02-12T08:26:36.882Z,1.77
2023-02-12T08:29:15.265Z,1.94
2023-02-12T08:31:44.834Z,2.22
2023-02-12T08:34:23.869Z,2.17
2023-02-12T08:36:54.090Z,2.29
2023-02-12T08:39:21.560Z,2.28
2023-02-12T08:41:48.625Z,2.30
2023-02-12T08:44:16.768Z,2.39
2023-02-12T08:46:46.948Z,2.40
2023-02-12T08:49:16.005Z,2.60
2023-02-12T08:51:45.892Z,2.79
2023-02-12T08:54:15.446Z,2.86
2023-02-12T08:56:42.799Z,3.10
2023-02-12T08:59:10.955Z,3.14
2023-02-12T09:01:38.718Z,3.15
2023-02-12T09:04:05.993Z,3.07
2023-02-12T09:06:34.463Z,3.24
2023-02-12T09:09:02.162Z,3.43
2023-02-12T09:11:32.422Z,3.55
2023-02-12T09:14:02.137Z,3.64
2023-02-12T09:16:30.639Z,3.72
2023-02-12T09:18:57.527Z,3.70
2023-02-12T09:21:24.222Z,3.85
2023-02-12T09:23:50.831Z,3.75
2023-02-12T09:26:23.051Z,3.87
2023-02-12T09:28:50.625Z,4.05
2023-02-12T09:31:26.558Z,4.00
2023-02-12T09:34:04.058Z,4.27
2023-02-12T09:36:31.811Z,4.39
2023-02-12T09:38:59.442Z,4.37
2023-02-12T09:41:48.691Z,4.70
2023-02-12T09:44:22.669Z,4.95
2023-02-12T09:47:00.167Z,5.35
2023-02-12T09:49:39.514Z,5.45
2023-02-12T09:52:13.779Z,5.39
2023-02-12T09:54:40.340Z,5.59
2023-02-12T09:57:17.592Z,5.89
2023-02-12T10:00:10.127Z,6.23
2023-02-12T10:02:39.009Z,8.24
2023-02-12T10:05:14.487Z,8.81
2023-02-12T10:07:43.672Z,9.77
2023-02-12T10:10:31.465Z,10.08
2023-02-12T10:13:04.070Z,10.75
2023-02-12T10:16:07.457Z,11.39
2023-02-12T10:18:51.106Z,11.27
2023-02-12T10:21:20.348Z,11.56
2023-02-12T10:23:52.697Z,11.60
2023-02-12T10:26:25.915Z,11.90
2023-02-12T10:28:53.233Z,11.92
2023-02-12T10:31:30.373Z,12.37
2023-02-12T10:33:57.544Z,12.54
2023-02-12T10:36:42.494Z,12.91
2023-02-12T10:39:14.546Z,13.41
2023-02-12T10:41:49.076Z,13.54
2023-02-12T10:44:15.711Z,14.01
2023-02-12T10:46:42.214Z,14.58
2023-02-12T10:49:14.014Z,14.86
2023-02-12T10:51:55.538Z,14.95
2023-02-12T10:54:32.361Z,14.88
2023-02-12T10:57:04.833Z,14.47
2023-02-12T10:59:31.381Z,14.92
2023-02-12T11:01:57.996Z,14.48
2023-02-12T11:04:27.727Z,14.20
2023-02-12T11:07:03.551Z,14.91
2023-02-12T11:09:45.404Z,14.73
2023-02-12T11:12:21.027Z,15.95
2023-02-12T11:14:54.044Z,15.83
2023-02-12T11:17:29.749Z,16.16
2023-02-12T11:20:24.849Z,16.90
2023-02-12T11:22:55.969Z,16.62
2023-02-12T11:25:25.408Z,16.49
2023-02-12T11:28:18.818Z,16.35
2023-02-12T11:30:55.521Z,16.56
2023-02-12T11:33:25.628Z,17.29
2023-02-12T11:35:56.092Z,16.38
2023-02-12T11:38:35.096Z,16.52
2023-02-12T11:41:37.516Z,16.94
2023-02-12T11:44:13.252Z,14.82
2023-02-12T11:46:40.861Z,15.04
2023-02-12T11:49:09.377Z,15.85
2023-02-12T11:51:37.775Z,16.53
2023-02-12T11:54:07.592Z,16.22
2023-02-12T11:56:43.482Z,16.17
2023-02-12T11:59:21.876Z,16.84
2023-02-12T12:01:51.297Z,17.24
2023-02-12T12:04:22.849Z,16.33
2023-02-12T12:07:00.029Z,16.95
2023-02-12T12:09:49.651Z,17.02
2023-02-12T12:12:31.382Z,15.92
2023-02-12T12:15:33.964Z,15.48
2023-02-12T12:18:31.969Z,16.08
2023-02-12T12:21:08.303Z,16.95
2023-02-12T12:24:11.407Z,17.09
2023-02-12T12:26:41.945Z,17.45
2023-02-12T12:29:40.549Z,17.56
2023-02-12T12:32:10.005Z,17.41
2023-02-12T12:34:36.508Z,17.86
2023-02-12T12:37:18.098Z,17.87
2023-02-12T12:39:59.934Z,17.66
2023-02-12T12:42:28.340Z,16.99
2023-02-12T12:45:16.291Z,17.47
2023-02-12T12:47:54.860Z,17.25
2023-02-12T12:50:46.205Z,17.69
2023-02-12T12:53:22.191Z,17.84
2023-02-12T12:56:07.280Z,17.63
2023-02-12T12:58:52.642Z,17.55
2023-02-12T13:01:44.978Z,17.84
2023-02-12T13:04:47.739Z,17.37
2023-02-12T13:07:58.608Z,17.62
2023-02-12T13:10:48.197Z,17.68
2023-02-12T13:13:29.038Z,17.76
2023-02-12T13:16:04.588Z,17.25
2023-02-12T13:18:31.030Z,17.44
2023-02-12T13:21:20.926Z,17.15
2023-02-12T13:24:10.299Z,16.37
2023-02-12T13:26:50.566Z,17.10
2023-02-12T13:29:23.311Z,16.68
2023-02-12T13:32:02.631Z,16.75
2023-02-12T13:34:32.473Z,16.73
2023-02-12T13:37:04.475Z,16.94
2023-02-12T13:39:41.095Z,16.77
2023-02-12T13:42:07.670Z,16.83
2023-02-12T13:44:43.188Z,16.69
2023-02-12T13:47:30.257Z,16.63
2023-02-12T13:50:05.525Z,16.06
2023-02-12T13:52:49.384Z,15.90
2023-02-12T13:55:31.774Z,15.63
2023-02-12T13:58:32.276Z,15.03
2023-02-12T14:01:14.789Z,14.88
2023-02-12T14:03:41.384Z,14.53
2023-02-12T14:06:09.630Z,14.43
2023-02-12T14:08:40.026Z,14.81
2023-02-12T14:11:13.108Z,14.17
2023-02-12T14:13:52.507Z,14.12
2023-02-12T14:16:40.432Z,13.82
2023-02-12T14:19:44.701Z,13.50
2023-02-12T14:22:34.152Z,13.01
2023-02-12T14:25:21.715Z,13.12
2023-02-12T14:28:06.447Z,13.39
2023-02-12T14:30:35.502Z,13.01
2023-02-12T14:33:08.257Z,12.96
2023-02-12T14:35:46.763Z,12.54
2023-02-12T14:38:46.901Z,12.51
2023-02-12T14:41:37.806Z,12.42
2023-02-12T14:44:30.756Z,12.15
2023-02-12T14:46:58.313Z,12.30
2023-02-12T14:49:33.322Z,12.20
2023-02-12T14:52:15.496Z,12.15
2023-02-12T14:54:54.661Z,12.02
2023-02-12T14:57:29.120Z,11.84
2023-02-12T15:00:16.754Z,11.55
2023-02-12T15:02:50.067Z,11.46
2023-02-12T15:05:26.065Z,11.35
2023-02-12T15:08:00.454Z,11.44
2023-02-12T15:10:35.190Z,11.26
2023-02-12T15:13:13.792Z,11.10
2023-02-12T15:15:50.824Z,11.17
2023-02-12T15:18:48.414Z,10.95
2023-02-12T15:21:31.716Z,10.89
2023-02-12T15:24:01.814Z,10.73
2023-02-12T15:26:32.392Z,10.77
2023-02-12T15:28:59.665Z,10.71
2023-02-12T15:31:29.724Z,10.62
2023-02-12T15:33:58.623Z,10.49
2023-02-12T15:36:28.491Z,10.22
2023-02-12T15:38:58.187Z,9.97
2023-02-12T15:41:24.578Z,9.96
2023-02-12T15:43:51.077Z,10.06
2023-02-12T15:46:18.536Z,10.18
2023-02-12T15:48:45.237Z,10.22
2023-02-12T15:51:14.795Z,10.13
2023-02-12T15:53:42.457Z,10.12
2023-02-12T15:56:18.294Z,10.14
2023-02-12T15:58:49.327Z,10.11
2023-02-12T16:01:19.068Z,10.10
2023-02-12T16:03:50.729Z,10.04
2023-02-12T16:06:18.667Z,10.01
2023-02-12T16:08:52.889Z,9.81
2023-02-12T16:11:22.279Z,9.83
2023-02-12T16:13:55.751Z,9.72
2023-02-12T16:16:22.167Z,9.66
2023-02-12T16:19:05.888Z,9.69
2023-02-12T16:21:34.456Z,9.65
2023-02-12T16:24:01.354Z,9.76
2023-02-12T16:26:28.491Z,9.73
2023-02-12T16:28:57.095Z,9.76
2023-02-12T16:31:26.778Z,9.60
2023-02-12T16:33:59.219Z,9.66
2023-02-12T16:36:25.758Z,9.38
2023-02-12T16:39:06.515Z,9.35
2023-02-12T16:41:52.385Z,9.39
2023-02-12T16:44:27.053Z,9.25
2023-02-12T16:46:56.753Z,9.05
2023-02-12T16:49:26.519Z,9.09
2023-02-12T16:51:53.649Z,8.98
2023-02-12T16:54:34.856Z,8.72
2023-02-12T16:57:02.392Z,8.57
2023-02-12T16:59:29.935Z,8.57
2023-02-12T17:02:09.632Z,8.43
2023-02-12T17:04:36.231Z,8.28
2023-02-12T17:07:02.847Z,8.19
2023-02-12T17:09:32.374Z,8.40
2023-02-12T17:11:58.911Z,8.39
2023-02-12T17:14:25.368Z,8.16
2023-02-12T17:16:51.897Z,8.15
2023-02-12T17:19:18.397Z,8.14
2023-02-12T17:21:49.318Z,7.93
2023-02-12T17:24:22.523Z,7.92
2023-02-12T17:26:53.059Z,7.96
2023-02-12T17:29:21.769Z,7.59
2023-02-12T17:31:49.280Z,7.55
2023-02-12T17:34:16.656Z,7.57
2023-02-12T17:36:43.165Z,7.44
2023-02-12T17:39:12.906Z,7.46
2023-02-12T17:41:40.810Z,7.35
2023-02-12T17:44:08.227Z,7.30
2023-02-12T17:46:34.922Z,7.08
2023-02-12T17:49:01.475Z,7.14
2023-02-12T17:51:28.069Z,6.94
2023-02-12T17:53:54.613Z,6.78
2023-02-12T17:56:23.225Z,6.66
2023-02-12T17:58:49.858Z,6.65
2023-02-12T18:01:19.860Z,6.57
2023-02-12T18:03:46.876Z,6.58
2023-02-12T18:06:16.546Z,6.53
2023-02-12T18:08:43.675Z,6.34
2023-02-12T18:11:11.648Z,6.15
2023-02-12T18:13:38.350Z,6.16
2023-02-12T18:16:09.646Z,6.14
2023-02-12T18:18:37.330Z,6.06
2023-02-12T18:21:13.331Z,5.99
2023-02-12T18:23:40.459Z,6.12
2023-02-12T18:26:12.553Z,6.03
2023-02-12T18:28:39.910Z,5.83
2023-02-12T18:31:07.203Z,5.75
2023-02-12T18:33:33.903Z,5.67
2023-02-12T18:36:09.665Z,5.54
2023-02-12T18:38:38.256Z,5.53
2023-02-12T18:41:10.865Z,5.46
2023-02-12T18:43:37.870Z,5.58
2023-02-12T18:46:08.630Z,5.43
2023-02-12T18:48:36.264Z,5.56
2023-02-12T18:51:07.413Z,5.44
2023-02-12T18:53:34.048Z,5.36
2023-02-12T18:56:04.980Z,5.83
2023-02-12T18:58:31.510Z,5.72
2023-02-12T19:00:58.275Z,5.58
2023-02-12T19:03:25.742Z,5.51
2023-02-12T19:05:52.979Z,5.38
2023-02-12T19:08:19.644Z,5.35
2023-02-12T19:10:49.440Z,5.19
2023-02-12T19:13:15.988Z,5.21
2023-02-12T19:15:42.665Z,5.15
2023-02-12T19:18:09.134Z,5.03
2023-02-12T19:20:39.244Z,4.83
2023-02-12T19:23:05.741Z,4.83
2023-02-12T19:25:35.456Z,4.83
2023-02-12T19:28:01.919Z,4.92
2023-02-12T19:30:28.377Z,4.75
2023-02-12T19:32:54.850Z,4.69
2023-02-12T19:35:21.395Z,4.60
2023-02-12T19:37:47.883Z,4.49
2023-02-12T19:40:14.522Z,4.33
2023-02-12T19:42:41.044Z,4.17
2023-02-12T19:45:07.990Z,4.26
2023-02-12T19:47:34.530Z,4.38
2023-02-12T19:50:01.060Z,4.34
2023-02-12T19:52:27.562Z,4.23
2023-02-12T19:54:54.187Z,4.31
2023-02-12T19:57:20.722Z,4.27
2023-02-12T19:59:47.485Z,4.17
2023-02-12T20:02:13.977Z,4.21
2023-02-12T20:04:40.584Z,4.09
2023-02-12T20:07:08.282Z,4.21
2023-02-12T20:09:35.652Z,4.21
2023-02-12T20:12:02.615Z,4.17
2023-02-12T20:14:29.275Z,4.20
2023-02-12T20:16:57.342Z,3.98
2023-02-12T20:19:33.165Z,3.97
2023-02-12T20:22:01.640Z,3.84
2023-02-12T20:24:30.716Z,3.72
2023-02-12T20:26:59.232Z,3.81
2023-02-12T20:29:25.929Z,3.86
2023-02-12T20:31:52.830Z,3.74
2023-02-12T20:34:20.578Z,3.96
2023-02-12T20:36:47.453Z,3.71
2023-02-12T20:39:16.663Z,3.86
2023-02-12T20:41:43.564Z,3.96
2023-02-12T20:44:14.189Z,3.98
2023-02-12T20:46:42.227Z,3.77
2023-02-12T20:49:10.645Z,3.73
2023-02-12T20:51:37.166Z,3.79
2023-02-12T20:54:04.046Z,3.75
2023-02-12T20:56:33.477Z,3.66
2023-02-12T20:59:00.878Z,3.60
2023-02-12T21:01:32.821Z,3.66
2023-02-12T21:04:09.137Z,3.59
2023-02-12T21:06:37.012Z,3.54
2023-02-12T21:09:03.914Z,3.49
2023-02-12T21:11:30.424Z,3.50
2023-02-12T21:14:12.456Z,3.34
2023-02-12T21:16:45.619Z,3.52
2023-02-12T21:19:14.164Z,3.44
2023-02-12T21:21:42.307Z,3.40
2023-02-12T21:24:12.949Z,3.34
2023-02-12T21:26:39.521Z,3.35
2023-02-12T21:29:06.229Z,3.13
2023-02-12T21:31:35.259Z,3.09
2023-02-12T21:34:03.611Z,3.11
2023-02-12T21:36:35.856Z,3.03
2023-02-12T21:39:04.280Z,3.04
2023-02-12T21:41:36.469Z,2.98
2023-02-12T21:44:11.056Z,2.99
2023-02-12T21:46:37.929Z,2.84
2023-02-12T21:49:05.503Z,2.87
2023-02-12T21:51:35.054Z,2.77
2023-02-12T21:54:04.536Z,2.77
2023-02-12T21:56:31.601Z,2.82
2023-02-12T21:58:59.202Z,2.77
2023-02-12T22:01:29.629Z,2.69
2023-02-12T22:03:56.114Z,2.74
2023-02-12T22:06:24.960Z,2.61
2023-02-12T22:08:52.947Z,2.51
2023-02-12T22:11:21.072Z,2.72
2023-02-12T22:13:47.657Z,2.74
2023-02-12T22:16:17.923Z,2.77
2023-02-12T22:18:45.340Z,2.69
2023-02-12T22:21:13.825Z,2.57
2023-02-12T22:23:41.097Z,2.62
2023-02-12T22:26:28.210Z,2.58
2023-02-12T22:29:02.681Z,2.68
2023-02-12T22:31:31.947Z,2.77
2023-02-12T22:34:00.870Z,2.85
2023-02-12T22:36:27.926Z,2.63
2023-02-12T22:38:57.340Z,2.54
2023-02-12T22:41:24.138Z,2.43
2023-02-12T22:43:50.658Z,2.45
2023-02-12T22:46:17.270Z,2.25
2023-02-12T22:48:44.099Z,2.34
2023-02-12T22:51:20.035Z,2.29
2023-02-12T22:53:47.118Z,2.24
2023-02-12T22:56:13.881Z,2.13
2023-02-12T22:58:40.731Z,2.13
2023-02-12T23:01:12.858Z,2.07
2023-02-12T23:03:39.755Z,2.08
2023-02-12T23:06:10.193Z,1.88
2023-02-12T23:08:36.882Z,1.92
2023-02-12T23:11:04.691Z,1.89
2023-02-12T23:13:32.529Z,1.81
2023-02-12T23:15:59.085Z,1.79
2023-02-12T23:18:25.730Z,1.93
2023-02-12T23:20:53.252Z,1.88
2023-02-12T23:23:21.449Z,1.92
2023-02-12T23:25:48.579Z,1.84
2023-02-12T23:28:15.752Z,1.85
2023-02-12T23:30:43.116Z,2.23
2023-02-12T23:33:10.038Z,2.42
2023-02-12T23:35:36.534Z,2.42
2023-02-12T23:38:04.364Z,2.45
2023-02-12T23:40:32.892Z,2.53
2023-02-12T23:42:59.751Z,2.32
2023-02-12T23:45:27.105Z,2.11
2023-02-12T23:47:54.350Z,2.29
2023-02-12T23:50:20.979Z,2.32
2023-02-12T23:52:47.456Z,2.54
2023-02-12T23:55:14.224Z,2.67
2023-02-12T23:57:40.678Z,2.38
